Time;durP1;ratioP1;P1;durP2;ratioP2;P2;SDS_P1;SDS_P2;PMS_P1;PMS_P2;Temp;Humidity;BMP_temperature;BMP_pressure;BME280_temperature;BME280_humidity;BME280_pressure;Samples;Min_cycle;Max_cycle;Signal;HPM_P1;HPM_P2
2022/01/26 00:50:35;;;;;;;16.97;8.63;;;;;;;-5.71;91.85;100802.88;31066362;28;20089;-86
2022/01/26 01:05:50;;;;;;;16.93;8.40;;;;;;;-5.75;90.92;100801.88;31109054;28;20137;-84
2022/01/26 01:35:59;;;;;;;8.97;5.87;;;;;;;-5.71;91.35;100776.41;31121279;28;20074;-83
2022/01/26 01:51:07;;;;;;;25.03;11.90;;;;;;;-5.73;91.94;100768.00;31117657;28;20081;-84
2022/01/26 02:06:09;;;;;;;24.63;10.97;;;;;;;-5.68;92.16;100759.97;31116150;28;20066;-82
2022/01/26 02:21:36;;;;;;;15.87;10.73;;;;;;;-5.68;92.37;100754.69;31042091;28;20069;-82
2022/01/26 03:07:27;;;;;;;26.80;12.43;;;;;;;-5.80;93.69;100730.56;31101448;28;20061;-83
2022/01/26 03:37:53;;;;;;;36.57;16.63;;;;;;;-5.77;94.01;100712.25;31056191;28;20081;-83
2022/01/26 03:52:55;;;;;;;24.27;13.67;;;;;;;-5.76;93.68;100705.09;31066281;28;20050;-82
2022/01/26 04:08:04;;;;;;;28.97;13.17;;;;;;;-5.74;93.80;100710.88;31101244;28;20073;-83
2022/01/26 04:23:15;;;;;;;25.27;13.37;;;;;;;-5.79;93.49;100700.41;31092048;28;20137;-84
2022/01/26 04:53:19;;;;;;;34.07;13.10;;;;;;;-5.84;93.66;100699.41;31089452;28;20144;-84
2022/01/26 05:08:21;;;;;;;27.10;12.73;;;;;;;-5.79;93.21;100695.09;31141307;28;20053;-85
2022/01/26 05:23:23;;;;;;;25.13;13.57;;;;;;;-5.79;92.73;100690.59;31083397;28;20140;-83
2022/01/26 05:38:25;;;;;;;29.80;13.30;;;;;;;-5.65;92.77;100701.16;31114262;28;20078;-82
2022/01/26 05:53:27;;;;;;;31.70;14.23;;;;;;;-5.55;93.38;100700.97;31082444;28;20054;-84
2022/01/26 06:08:29;;;;;;;37.90;14.83;;;;;;;-5.50;91.86;100687.66;31053418;28;20050;-81
2022/01/26 06:23:31;;;;;;;32.53;15.00;;;;;;;-5.37;92.18;100676.25;31085125;28;20135;-84
2022/01/26 06:38:32;;;;;;;24.53;13.90;;;;;;;-5.24;91.10;100672.78;31112546;28;20078;-78
2022/01/26 06:53:34;;;;;;;25.00;11.97;;;;;;;-5.12;91.76;100666.19;31080262;28;20560;-81
2022/01/26 07:08:36;;;;;;;20.80;10.73;;;;;;;-4.85;91.52;100666.06;31085488;28;20151;-83
2022/01/26 07:23:38;;;;;;;20.13;12.50;;;;;;;-4.86;91.28;100664.50;31131154;28;20136;-81
2022/01/26 07:38:40;;;;;;;22.97;12.37;;;;;;;-4.37;89.31;100654.81;31101024;28;21704;-81
2022/01/26 07:53:42;;;;;;;22.77;10.73;;;;;;;-4.01;88.21;100647.47;31069886;28;20145;-81
2022/01/26 08:08:44;;;;;;;21.03;11.10;;;;;;;-3.58;83.38;100657.44;31100953;28;20061;-83
2022/01/26 08:23:47;;;;;;;24.97;9.30;;;;;;;-3.23;80.97;100640.44;31150433;28;20140;-81
2022/01/26 08:38:49;;;;;;;19.70;7.83;;;;;;;-3.33;81.01;100638.09;31102155;28;20081;-81
2022/01/26 08:53:51;;;;;;;16.03;8.47;;;;;;;-3.52;80.29;100633.06;31104068;28;20133;-80
2022/01/26 09:09:01;;;;;;;12.87;7.23;;;;;;;-3.83;81.36;100638.50;31062107;28;20133;-80
2022/01/26 09:24:03;;;;;;;16.03;6.43;;;;;;;-3.50;80.98;100619.50;31040361;28;20144;-81
2022/01/26 09:39:05;;;;;;;14.13;7.97;;;;;;;-3.42;79.93;100600.16;31074640;28;20050;-79
2022/01/26 09:54:14;;;;;;;13.67;6.30;;;;;;;-3.60;80.91;100588.75;31089952;28;20088;-80
2022/01/26 10:25:02;;;;;;;14.17;7.27;;;;;;;-3.46;79.95;100576.09;31119748;28;20534;-79
2022/01/26 10:40:27;;;;;;;16.67;9.47;;;;;;;-3.39;81.10;100577.50;31087151;28;20400;-81
2022/01/26 10:55:30;;;;;;;20.73;9.33;;;;;;;-3.46;80.31;100568.13;31062978;28;20192;-81
2022/01/26 11:10:36;;;;;;;13.13;7.07;;;;;;;-3.37;78.65;100567.34;31067616;28;20055;-81
2022/01/26 11:25:46;;;;;;;19.98;8.15;;;;;;;-3.42;78.95;100556.88;31076054;28;20140;-80
2022/01/26 11:56:14;;;;;;;14.60;8.03;;;;;;;-3.57;79.18;100518.34;31074419;28;20053;-81
2022/01/26 12:11:16;;;;;;;13.67;6.67;;;;;;;-3.55;80.27;100514.28;31056696;28;20051;-81
2022/01/26 12:41:45;;;;;;;10.23;6.17;;;;;;;-3.86;81.41;100500.38;31069321;28;20137;-81
2022/01/26 12:56:48;;;;;;;12.77;6.23;;;;;;;-3.91;79.90;100498.66;31095728;28;20085;-80
2022/01/26 13:11:50;;;;;;;9.10;6.37;;;;;;;-4.07;81.53;100508.19;31059503;28;20054;-84
2022/01/26 13:27:04;;;;;;;11.87;6.27;;;;;;;-4.12;82.38;100524.22;31085387;28;20069;-81
2022/01/26 14:12:47;;;;;;;11.97;6.50;;;;;;;-4.35;86.26;100544.75;31079427;28;20560;-80
2022/01/26 14:27:52;;;;;;;13.53;7.03;;;;;;;-4.42;88.00;100538.34;31087970;28;20523;-80
2022/01/26 15:44:39;;;;;;;23.63;11.57;;;;;;;-4.32;90.62;100568.00;31057784;28;20467;-82
2022/01/26 19:04:06;;;;;;;26.60;11.37;;;;;;;-4.84;93.68;100606.72;31070354;28;20125;-75
2022/01/26 19:19:33;;;;;;;22.10;12.00;;;;;;;-4.72;93.13;100606.94;31097501;28;20140;-73
2022/01/26 20:05:17;;;;;;;20.60;10.27;;;;;;;-4.53;93.57;100610.19;31100985;28;20499;-74
2022/01/26 20:20:21;;;;;;;21.97;12.03;;;;;;;-4.61;93.02;100610.13;31090945;28;20050;-75
2022/01/26 20:35:23;;;;;;;21.57;11.33;;;;;;;-4.75;93.30;100612.88;31111610;28;20178;-76
2022/01/26 20:50:26;;;;;;;20.53;11.73;;;;;;;-4.67;93.50;100614.75;31106771;28;20423;-76
2022/01/26 21:05:29;;;;;;;22.30;12.93;;;;;;;-4.79;94.15;100622.50;31091229;28;20058;-76
2022/01/26 21:20:30;;;;;;;29.73;12.57;;;;;;;-4.90;94.40;100621.16;31086756;28;20768;-75
2022/01/26 21:35:32;;;;;;;21.77;11.20;;;;;;;-4.85;94.13;100618.41;31096736;28;20050;-76
2022/01/26 21:50:35;;;;;;;19.90;11.80;;;;;;;-4.94;94.43;100620.97;31104659;28;20137;-74
2022/01/26 22:05:37;;;;;;;27.37;10.37;;;;;;;-4.93;93.83;100630.50;31078719;28;20053;-75
2022/01/26 22:20:39;;;;;;;28.07;13.33;;;;;;;-4.95;94.39;100624.72;31085312;28;20084;-75
2022/01/26 22:35:41;;;;;;;26.17;12.13;;;;;;;-5.00;94.12;100610.84;31121895;28;20476;-75
2022/01/26 22:50:43;;;;;;;24.03;14.10;;;;;;;-4.94;94.66;100609.59;31071013;28;20085;-75
2022/01/26 23:21:06;;;;;;;33.77;16.33;;;;;;;-5.01;94.67;100615.34;31041761;28;20132;-73
